Time,TemperatureF,DewpointF,PressureIn,WindDirection,WindDirectionDegrees,WindSpeedMPH,WindSpeedGustMPH,Humidity,HourlyPrecipIn,Conditions,Clouds,dailyrainin,SoftwareType,DateUTC
2013-04-07 00:00:00,43.7,26.3,29.99,ESE,113,0.0,1.0,50,0.00,,,0.00,Wunderground v.1.15,2013-04-07 04:00:00,
2013-04-07 00:05:00,43.9,25.5,29.99,ESE,110,0.0,1.0,48,0.00,,,0.00,Wunderground v.1.15,2013-04-07 04:05:00,
2013-04-07 00:10:00,44.3,24.3,29.98,ESE,108,0.0,0.0,45,0.00,,,0.00,Wunderground v.1.15,2013-04-07 04:10:00,
2013-04-07 00:15:00,44.7,23.0,29.98,SE,136,0.0,0.0,42,0.00,,,0.00,Wunderground v.1.15,2013-04-07 04:15:00,
2013-04-07 00:20:00,45.7,20.2,29.98,ESE,107,1.0,1.0,36,0.00,,,0.00,Wunderground v.1.15,2013-04-07 04:20:00,
2013-04-07 00:25:00,46.7,20.5,29.97,ESE,102,1.0,1.0,35,0.00,,,0.00,Wunderground v.1.15,2013-04-07 04:25:00,
2013-04-07 00:30:00,47.2,19.5,29.96,East,90,1.0,2.0,33,0.00,,,0.00,Wunderground v.1.15,2013-04-07 04:30:00,
2013-04-07 00:40:00,47.6,19.2,29.96,SSE,151,1.0,1.0,32,0.00,,,0.00,Wunderground v.1.15,2013-04-07 04:40:00,
2013-04-07 00:45:00,47.9,18.7,29.96,SE,143,1.0,1.0,31,0.00,,,0.00,Wunderground v.1.15,2013-04-07 04:45:00,
2013-04-07 00:55:00,48.5,19.2,29.95,SSE,150,2.0,2.0,31,0.00,,,0.00,Wunderground v.1.15,2013-04-07 04:55:00,
2013-04-07 01:00:00,48.8,18.7,29.95,SE,134,2.0,2.0,30,0.00,,,0.00,Wunderground v.1.15,2013-04-07 05:00:00,
2013-04-07 01:10:00,49.3,18.3,29.94,SE,132,3.0,4.0,29,0.00,,,0.00,Wunderground v.1.15,2013-04-07 05:10:00,
2013-04-07 01:20:00,49.8,18.8,29.92,SE,146,4.0,4.0,29,0.00,,,0.00,Wunderground v.1.15,2013-04-07 05:20:00,
2013-04-07 01:25:00,49.9,18.9,29.92,SE,132,3.0,4.0,29,0.00,,,0.00,Wunderground v.1.15,2013-04-07 05:25:00,
2013-04-07 01:30:00,50.0,18.9,29.92,SSE,148,3.0,6.0,29,0.00,,,0.00,Wunderground v.1.15,2013-04-07 05:30:00,
2013-04-07 01:40:00,50.3,19.2,29.91,South,177,4.0,4.0,29,0.00,,,0.00,Wunderground v.1.15,2013-04-07 05:40:00,
2013-04-07 01:50:00,50.6,19.5,29.91,SSE,151,4.0,4.0,29,0.00,,,0.00,Wunderground v.1.15,2013-04-07 05:50:00,
2013-04-07 01:55:00,50.9,18.9,29.90,SSW,208,4.0,4.0,28,0.00,,,0.00,Wunderground v.1.15,2013-04-07 05:55:00,
2013-04-07 02:00:00,51.2,19.2,29.90,South,169,4.0,4.0,28,0.00,,,0.00,Wunderground v.1.15,2013-04-07 06:00:00,
2013-04-07 02:06:00,51.4,18.5,29.89,SSE,159,5.0,6.0,27,0.00,,,0.00,Wunderground v.1.15,2013-04-07 06:06:00,
2013-04-07 02:15:00,51.8,18.8,29.89,South,191,5.0,5.0,27,0.00,,,0.00,Wunderground v.1.15,2013-04-07 06:15:00,
2013-04-07 02:25:00,51.7,19.6,29.89,South,189,4.0,5.0,28,0.00,,,0.00,Wunderground v.1.15,2013-04-07 06:25:00,
2013-04-07 02:35:00,51.7,18.7,29.88,SSE,168,4.0,6.0,27,0.00,,,0.00,Wunderground v.1.15,2013-04-07 06:35:00,
2013-04-07 02:45:00,52.0,19.0,29.88,ESE,113,5.0,8.0,27,0.00,,,0.00,Wunderground v.1.15,2013-04-07 06:45:00,
2013-04-07 02:55:00,52.2,19.2,29.87,SE,131,5.0,9.0,27,0.00,,,0.00,Wunderground v.1.15,2013-04-07 06:55:00,
2013-04-07 03:00:00,52.3,19.3,29.87,South,190,6.0,6.0,27,0.00,,,0.00,Wunderground v.1.15,2013-04-07 07:00:00,
2013-04-07 03:10:00,52.3,20.1,29.86,SSE,156,6.0,6.0,28,0.00,,,0.00,Wunderground v.1.15,2013-04-07 07:10:00,
2013-04-07 03:15:00,52.2,20.0,29.85,SSE,165,5.0,6.0,28,0.00,,,0.00,Wunderground v.1.15,2013-04-07 07:15:00,
2013-04-07 03:20:00,52.2,20.0,29.85,SE,137,4.0,4.0,28,0.00,,,0.00,Wunderground v.1.15,2013-04-07 07:20:00,
2013-04-07 03:30:00,52.4,20.2,29.84,SE,139,4.0,4.0,28,0.00,,,0.00,Wunderground v.1.15,2013-04-07 07:30:00,
2013-04-07 03:40:00,52.7,21.3,29.84,South,174,4.0,4.0,29,0.00,,,0.00,Wunderground v.1.15,2013-04-07 07:40:00,
2013-04-07 03:45:00,53.0,20.7,29.84,ESE,117,4.0,8.0,28,0.00,,,0.00,Wunderground v.1.15,2013-04-07 07:45:00,
2013-04-07 03:50:00,53.3,21.8,29.83,WSW,246,4.0,6.0,29,0.00,,,0.00,Wunderground v.1.15,2013-04-07 07:50:00,
2013-04-07 04:05:00,53.8,23.1,29.83,South,176,6.0,12.0,30,0.00,,,0.00,Wunderground v.1.15,2013-04-07 08:05:00,
2013-04-07 04:10:00,53.8,23.1,29.82,SW,219,7.0,12.0,30,0.00,,,0.00,Wunderground v.1.15,2013-04-07 08:10:00,
2013-04-07 04:21:00,53.7,23.0,29.82,SSE,159,7.0,12.0,30,0.00,,,0.00,Wunderground v.1.15,2013-04-07 08:21:00,
2013-04-07 04:30:00,53.7,23.7,29.82,WSW,238,7.0,12.0,31,0.00,,,0.00,Wunderground v.1.15,2013-04-07 08:30:00,
2013-04-07 04:40:00,53.8,24.6,29.81,SSW,201,6.0,16.0,32,0.00,,,0.00,Wunderground v.1.15,2013-04-07 08:40:00,
2013-04-07 04:45:00,53.9,24.7,29.81,SSW,196,7.0,7.0,32,0.00,,,0.00,Wunderground v.1.15,2013-04-07 08:45:00,
2013-04-07 04:55:00,54.0,25.5,29.81,SE,139,7.0,7.0,33,0.00,,,0.00,Wunderground v.1.15,2013-04-07 08:55:00,
2013-04-07 05:00:00,54.1,25.6,29.81,SW,215,6.0,6.0,33,0.00,,,0.00,Wunderground v.1.15,2013-04-07 09:00:00,
2013-04-07 05:10:00,54.5,26.7,29.80,SSW,193,6.0,6.0,34,0.00,,,0.00,Wunderground v.1.15,2013-04-07 09:10:00,
2013-04-07 05:20:00,54.9,27.0,29.80,SE,145,6.0,8.0,34,0.00,,,0.00,Wunderground v.1.15,2013-04-07 09:20:00,
2013-04-07 05:25:00,54.9,27.0,29.80,SW,225,6.0,8.0,34,0.00,,,0.00,Wunderground v.1.15,2013-04-07 09:25:00,
2013-04-07 05:35:00,55.1,26.5,29.79,South,181,8.0,8.0,33,0.00,,,0.00,Wunderground v.1.15,2013-04-07 09:35:00,
2013-04-07 05:40:00,55.1,26.5,29.79,WSW,243,7.0,7.0,33,0.00,,,0.00,Wunderground v.1.15,2013-04-07 09:40:00,
2013-04-07 05:45:00,55.0,27.1,29.79,WNW,283,7.0,7.0,34,0.00,,,0.00,Wunderground v.1.15,2013-04-07 09:45:00,
2013-04-07 05:55:00,55.1,27.2,29.79,South,174,7.0,10.0,34,0.00,,,0.00,Wunderground v.1.15,2013-04-07 09:55:00,
2013-04-07 06:00:00,55.1,27.2,29.79,SSW,205,7.0,7.0,34,0.00,,,0.00,Wunderground v.1.15,2013-04-07 10:00:00,
2013-04-07 06:05:00,55.0,27.1,29.79,South,174,7.0,7.0,34,0.00,,,0.00,Wunderground v.1.15,2013-04-07 10:05:00,
2013-04-07 06:15:00,55.1,27.9,29.78,WSW,246,7.0,9.0,35,0.00,,,0.00,Wunderground v.1.15,2013-04-07 10:15:00,
2013-04-07 06:20:00,55.1,27.9,29.78,SW,230,6.0,6.0,35,0.00,,,0.00,Wunderground v.1.15,2013-04-07 10:20:00,
2013-04-07 06:25:00,55.2,28.0,29.78,WSW,240,6.0,8.0,35,0.00,,,0.00,Wunderground v.1.15,2013-04-07 10:25:00,
2013-04-07 06:30:00,55.3,28.1,29.78,SW,235,6.0,6.0,35,0.00,,,0.00,Wunderground v.1.15,2013-04-07 10:30:00,
2013-04-07 06:40:00,55.3,28.1,29.78,SW,218,7.0,9.0,35,0.00,,,0.00,Wunderground v.1.15,2013-04-07 10:40:00,
2013-04-07 06:50:00,55.4,28.9,29.77,SSE,167,7.0,7.0,36,0.00,,,0.00,Wunderground v.1.15,2013-04-07 10:50:00,
2013-04-07 07:00:00,55.3,28.8,29.77,SW,235,6.0,8.0,36,0.00,,,0.00,Wunderground v.1.15,2013-04-07 11:00:00,
2013-04-07 07:05:00,55.2,28.7,29.77,SW,236,6.0,8.0,36,0.00,,,0.00,Wunderground v.1.15,2013-04-07 11:05:00,
2013-04-07 07:15:00,55.0,29.2,29.76,South,187,6.0,6.0,37,0.00,,,0.00,Wunderground v.1.15,2013-04-07 11:15:00,
2013-04-07 07:25:00,55.1,29.3,29.76,SSW,207,6.0,6.0,37,0.00,,,0.00,Wunderground v.1.15,2013-04-07 11:25:00,
2013-04-07 07:30:00,55.2,30.0,29.75,South,172,6.0,6.0,38,0.00,,,0.00,Wunderground v.1.15,2013-04-07 11:30:00,
2013-04-07 07:35:00,55.4,30.2,29.75,SSW,201,7.0,7.0,38,0.00,,,0.00,Wunderground v.1.15,2013-04-07 11:35:00,
2013-04-07 07:40:00,55.9,30.0,29.75,SSW,193,7.0,9.0,37,0.00,,,0.00,Wunderground v.1.15,2013-04-07 11:40:00,
2013-04-07 07:45:00,56.2,30.2,29.75,SSW,197,7.0,14.0,37,0.00,,,0.00,Wunderground v.1.15,2013-04-07 11:45:00,
2013-04-07 07:55:00,56.3,30.3,29.74,SW,226,8.0,10.0,37,0.00,,,0.00,Wunderground v.1.15,2013-04-07 11:55:00,
2013-04-07 08:00:00,56.5,30.5,29.74,SSE,162,7.0,7.0,37,0.00,,,0.00,Wunderground v.1.15,2013-04-07 12:00:00,
2013-04-07 08:10:00,57.0,31.0,29.74,SSW,207,8.0,8.0,37,0.00,,,0.00,Wunderground v.1.15,2013-04-07 12:10:00,
2013-04-07 08:15:00,57.3,31.2,29.74,SSE,156,8.0,17.0,37,0.00,,,0.00,Wunderground v.1.15,2013-04-07 12:15:00,
2013-04-07 08:20:00,57.5,31.4,29.73,SSE,154,8.0,8.0,37,0.00,,,0.00,Wunderground v.1.15,2013-04-07 12:20:00,
2013-04-07 08:30:00,57.6,31.5,29.73,SW,217,8.0,12.0,37,0.00,,,0.00,Wunderground v.1.15,2013-04-07 12:30:00,
2013-04-07 08:40:00,57.9,32.4,29.73,SW,214,7.0,9.0,38,0.00,,,0.00,Wunderground v.1.15,2013-04-07 12:40:00,
2013-04-07 08:50:00,59.3,33.0,29.73,SSE,148,8.0,8.0,37,0.00,,,0.00,Wunderground v.1.15,2013-04-07 12:50:00,
2013-04-07 09:00:00,59.5,33.2,29.73,SSE,155,7.0,7.0,37,0.00,,,0.00,Wunderground v.1.15,2013-04-07 13:00:00,
2013-04-07 09:05:00,59.6,33.3,29.72,SW,235,6.0,8.0,37,0.00,,,0.00,Wunderground v.1.15,2013-04-07 13:05:00,
2013-04-07 09:15:00,58.8,33.2,29.72,WSW,242,7.0,15.0,38,0.00,,,0.00,Wunderground v.1.15,2013-04-07 13:15:00,
2013-04-07 09:20:00,58.7,33.1,29.72,NW,321,7.0,7.0,38,0.00,,,0.00,Wunderground v.1.15,2013-04-07 13:20:00,
2013-04-07 09:25:00,58.6,33.7,29.72,WSW,245,7.0,9.0,39,0.00,,,0.00,Wunderground v.1.15,2013-04-07 13:25:00,
2013-04-07 09:35:00,58.5,34.9,29.71,SSE,160,7.0,13.0,41,0.00,,,0.00,Wunderground v.1.15,2013-04-07 13:35:00,
2013-04-07 09:45:00,58.5,35.5,29.71,SW,235,8.0,9.0,42,0.00,,,0.00,Wunderground v.1.15,2013-04-07 13:45:00,
2013-04-07 09:50:00,58.6,35.0,29.71,SSE,167,8.0,8.0,41,0.00,,,0.00,Wunderground v.1.15,2013-04-07 13:50:00,
2013-04-07 09:55:00,58.7,34.4,29.71,WSW,238,7.0,8.0,40,0.00,,,0.00,Wunderground v.1.15,2013-04-07 13:55:00,
2013-04-07 10:05:00,59.3,35.0,29.71,SSW,194,7.0,13.0,40,0.00,,,0.00,Wunderground v.1.15,2013-04-07 14:05:00,
2013-04-07 10:10:00,59.5,35.1,29.71,SSE,161,7.0,7.0,40,0.00,,,0.00,Wunderground v.1.15,2013-04-07 14:10:00,
2013-04-07 10:20:00,59.7,35.3,29.71,South,185,7.0,7.0,40,0.00,,,0.00,Wunderground v.1.15,2013-04-07 14:20:00,
2013-04-07 10:25:00,59.8,35.4,29.71,NNW,328,7.0,7.0,40,0.00,,,0.00,Wunderground v.1.15,2013-04-07 14:25:00,
2013-04-07 10:35:00,60.0,35.6,29.70,WNW,302,6.0,7.0,40,0.00,,,0.00,Wunderground v.1.15,2013-04-07 14:35:00,
2013-04-07 10:40:00,60.1,36.3,29.70,South,169,7.0,7.0,41,0.00,,,0.00,Wunderground v.1.15,2013-04-07 14:40:00,
2013-04-07 10:45:00,60.1,36.3,29.71,SW,229,7.0,7.0,41,0.00,,,0.00,Wunderground v.1.15,2013-04-07 14:45:00,
2013-04-07 10:55:00,60.0,36.8,29.71,SW,216,6.0,11.0,42,0.00,,,0.00,Wunderground v.1.15,2013-04-07 14:55:00,
2013-04-07 11:00:00,60.0,36.8,29.71,ESE,122,6.0,6.0,42,0.00,,,0.00,Wunderground v.1.15,2013-04-07 15:00:00,
2013-04-07 11:10:00,60.1,37.5,29.71,SW,222,7.0,7.0,43,0.00,,,0.00,Wunderground v.1.15,2013-04-07 15:10:00,
2013-04-07 11:20:00,60.6,37.4,29.71,SSW,205,7.0,7.0,42,0.00,,,0.00,Wunderground v.1.15,2013-04-07 15:20:00,
2013-04-07 11:25:00,60.9,37.6,29.71,West,262,8.0,8.0,42,0.00,,,0.00,Wunderground v.1.15,2013-04-07 15:25:00,
2013-04-07 11:30:00,61.3,38.0,29.71,SW,225,8.0,8.0,42,0.00,,,0.00,Wunderground v.1.15,2013-04-07 15:30:00,
2013-04-07 11:40:00,61.9,38.5,29.71,South,177,7.0,11.0,42,0.00,,,0.00,Wunderground v.1.15,2013-04-07 15:40:00,
2013-04-07 11:45:00,61.6,38.3,29.72,NW,325,7.0,11.0,42,0.00,,,0.00,Wunderground v.1.15,2013-04-07 15:45:00,
2013-04-07 11:50:00,61.4,38.7,29.72,WSW,249,7.0,10.0,43,0.00,,,0.00,Wunderground v.1.15,2013-04-07 15:50:00,
2013-04-07 12:00:00,61.7,39.6,29.71,SW,215,7.0,7.0,44,0.00,,,0.00,Wunderground v.1.15,2013-04-07 16:00:00,
2013-04-07 12:05:00,61.8,39.6,29.72,NW,307,7.0,7.0,44,0.00,,,0.00,Wunderground v.1.15,2013-04-07 16:05:00,
2013-04-07 12:10:00,62.0,39.8,29.72,SW,216,6.0,7.0,44,0.00,,,0.00,Wunderground v.1.15,2013-04-07 16:10:00,
2013-04-07 12:20:00,61.8,39.6,29.73,NNE,27,6.0,7.0,44,0.00,,,0.00,Wunderground v.1.15,2013-04-07 16:20:00,
2013-04-07 12:25:00,61.3,39.8,29.73,SSW,205,6.0,7.0,45,0.00,,,0.00,Wunderground v.1.15,2013-04-07 16:25:00,
2013-04-07 12:35:00,61.9,40.9,29.73,SW,218,7.0,10.0,46,0.00,,,0.00,Wunderground v.1.15,2013-04-07 16:35:00,
2013-04-07 12:45:00,63.3,43.3,29.72,WSW,242,8.0,10.0,48,0.00,,,0.00,Wunderground v.1.15,2013-04-07 16:45:00,
2013-04-07 12:50:00,63.4,43.4,29.72,NE,47,9.0,9.0,48,0.00,,,0.00,Wunderground v.1.15,2013-04-07 16:50:00,
2013-04-07 13:00:00,63.1,43.6,29.72,SW,218,8.0,8.0,49,0.00,,,0.00,Wunderground v.1.15,2013-04-07 17:00:00,
2013-04-07 13:10:00,62.8,43.9,29.72,WSW,245,8.0,8.0,50,0.00,,,0.00,Wunderground v.1.15,2013-04-07 17:10:00,
2013-04-07 13:15:00,62.9,44.0,29.72,WSW,255,9.0,11.0,50,0.00,,,0.00,Wunderground v.1.15,2013-04-07 17:15:00,
2013-04-07 13:20:00,62.7,44.3,29.72,SE,136,8.0,8.0,51,0.00,,,0.00,Wunderground v.1.15,2013-04-07 17:20:00,
2013-04-07 13:25:00,62.9,44.5,29.72,SSW,207,8.0,8.0,51,0.00,,,0.00,Wunderground v.1.15,2013-04-07 17:25:00,
2013-04-07 13:30:00,63.0,44.6,29.72,NNW,341,7.0,8.0,51,0.00,,,0.00,Wunderground v.1.15,2013-04-07 17:30:00,
2013-04-07 13:35:00,63.2,44.8,29.72,WSW,246,7.0,8.0,51,0.00,,,0.00,Wunderground v.1.15,2013-04-07 17:35:00,
2013-04-07 13:40:00,63.4,44.9,29.72,SSE,167,7.0,8.0,51,0.00,,,0.00,Wunderground v.1.15,2013-04-07 17:40:00,
2013-04-07 13:45:00,63.5,45.6,29.72,SSW,203,8.0,8.0,52,0.00,,,0.00,Wunderground v.1.15,2013-04-07 17:45:00,
2013-04-07 13:50:00,63.6,45.1,29.72,SW,224,8.0,8.0,51,0.00,,,0.00,Wunderground v.1.15,2013-04-07 17:50:00,
2013-04-07 14:00:00,63.5,45.0,29.73,South,191,9.0,9.0,51,0.00,,,0.00,Wunderground v.1.15,2013-04-07 18:00:00,
2013-04-07 14:10:00,63.8,44.8,29.74,WSW,240,7.0,7.0,50,0.00,,,0.00,Wunderground v.1.15,2013-04-07 18:10:00,
2013-04-07 14:15:00,64.0,45.0,29.73,SSW,205,7.0,7.0,50,0.00,,,0.00,Wunderground v.1.15,2013-04-07 18:15:00,
2013-04-07 14:25:00,63.3,44.9,29.73,WSW,249,8.0,13.0,51,0.00,,,0.00,Wunderground v.1.15,2013-04-07 18:25:00,
2013-04-07 14:30:00,63.1,45.2,29.73,SSW,194,7.0,7.0,52,0.00,,,0.00,Wunderground v.1.15,2013-04-07 18:30:00,
2013-04-07 14:35:00,62.9,45.0,29.73,WSW,256,7.0,12.0,52,0.00,,,0.00,Wunderground v.1.15,2013-04-07 18:35:00,
2013-04-07 14:40:00,60.8,43.1,29.75,WSW,243,7.0,7.0,52,0.00,,,0.00,Wunderground v.1.15,2013-04-07 18:40:00,
2013-04-07 14:45:00,60.5,44.2,29.75,SSW,211,6.0,7.0,55,0.00,,,0.00,Wunderground v.1.15,2013-04-07 18:45:00,
2013-04-07 14:50:00,58.8,42.2,29.75,WSW,240,6.0,6.0,54,0.00,,,0.00,Wunderground v.1.15,2013-04-07 18:50:00,
2013-04-07 14:55:00,58.1,42.9,29.76,SW,221,6.0,6.0,57,0.00,,,0.00,Wunderground v.1.15,2013-04-07 18:55:00,
2013-04-07 15:05:00,55.9,41.3,29.77,WSW,245,6.0,7.0,58,0.00,,,0.00,Wunderground v.1.15,2013-04-07 19:05:00,
2013-04-07 15:10:00,54.9,41.7,29.76,SW,214,6.0,7.0,61,0.00,,,0.00,Wunderground v.1.15,2013-04-07 19:10:00,
2013-04-07 15:15:00,55.0,42.2,29.77,SSE,148,6.0,7.0,62,0.00,,,0.00,Wunderground v.1.15,2013-04-07 19:15:00,
2013-04-07 15:25:00,55.8,42.5,29.77,WSW,238,4.0,5.0,61,0.00,,,0.00,Wunderground v.1.15,2013-04-07 19:25:00,
2013-04-07 15:30:00,54.8,41.2,29.78,SSE,155,5.0,5.0,60,0.00,,,0.00,Wunderground v.1.15,2013-04-07 19:30:00,
2013-04-07 15:35:00,54.0,41.3,29.78,SW,217,6.0,6.0,62,0.00,,,0.00,Wunderground v.1.15,2013-04-07 19:35:00,
2013-04-07 15:40:00,53.5,41.2,29.78,West,281,6.0,6.0,63,0.00,,,0.00,Wunderground v.1.15,2013-04-07 19:40:00,
2013-04-07 15:45:00,53.5,41.6,29.78,SSW,204,5.0,6.0,64,0.00,,,0.00,Wunderground v.1.15,2013-04-07 19:45:00,
2013-04-07 15:50:00,53.4,41.9,29.79,South,174,5.0,5.0,65,0.00,,,0.00,Wunderground v.1.15,2013-04-07 19:50:00,
2013-04-07 16:00:00,52.5,41.1,29.79,SW,222,6.0,10.0,65,0.00,,,0.00,Wunderground v.1.15,2013-04-07 20:00:00,
2013-04-07 16:05:00,52.0,41.4,29.79,WSW,238,6.0,14.0,67,0.00,,,0.00,Wunderground v.1.15,2013-04-07 20:05:00,
2013-04-07 16:15:00,51.8,41.6,29.79,SW,214,6.0,10.0,68,0.00,,,0.00,Wunderground v.1.15,2013-04-07 20:15:00,
2013-04-07 16:25:00,51.1,41.7,29.80,SSW,195,6.0,9.0,70,0.00,,,0.00,Wunderground v.1.15,2013-04-07 20:25:00,
2013-04-07 16:30:00,51.1,41.3,29.80,SSW,208,6.0,6.0,69,0.00,,,0.00,Wunderground v.1.15,2013-04-07 20:30:00,
2013-04-07 16:35:00,51.4,41.6,29.81,SW,226,6.0,6.0,69,0.00,,,0.00,Wunderground v.1.15,2013-04-07 20:35:00,
2013-04-07 16:40:00,51.1,41.3,29.82,West,271,6.0,6.0,69,0.00,,,0.00,Wunderground v.1.15,2013-04-07 20:40:00,
2013-04-07 16:45:00,51.8,41.9,29.82,WSW,243,4.0,6.0,69,0.00,,,0.00,Wunderground v.1.15,2013-04-07 20:45:00,
2013-04-07 16:55:00,52.1,41.5,29.83,SSE,162,5.0,5.0,67,0.00,,,0.00,Wunderground v.1.15,2013-04-07 20:55:00,
2013-04-07 17:00:00,52.0,41.4,29.83,WNW,287,4.0,4.0,67,0.00,,,0.00,Wunderground v.1.15,2013-04-07 21:00:00,
2013-04-07 17:10:00,52.2,41.6,29.84,SSW,209,4.0,4.0,67,0.00,,,0.00,Wunderground v.1.15,2013-04-07 21:10:00,
2013-04-07 17:15:00,52.5,41.5,29.85,WSW,252,4.0,4.0,66,0.00,,,0.00,Wunderground v.1.15,2013-04-07 21:15:00,
2013-04-07 17:25:00,52.7,41.3,29.85,South,190,3.0,3.0,65,0.00,,,0.00,Wunderground v.1.15,2013-04-07 21:25:00,
2013-04-07 17:35:00,52.6,41.2,29.85,West,271,3.0,4.0,65,0.00,,,0.00,Wunderground v.1.15,2013-04-07 21:35:00,
2013-04-07 17:40:00,52.8,41.4,29.86,SW,235,3.0,6.0,65,0.00,,,0.00,Wunderground v.1.15,2013-04-07 21:40:00,
2013-04-07 17:50:00,52.9,41.4,29.87,WSW,240,2.0,2.0,65,0.00,,,0.00,Wunderground v.1.15,2013-04-07 21:50:00,
2013-04-07 17:55:00,53.0,41.5,29.87,West,260,2.0,2.0,65,0.00,,,0.00,Wunderground v.1.15,2013-04-07 21:55:00,
2013-04-07 18:00:00,53.1,41.2,29.88,SW,224,2.0,2.0,64,0.00,,,0.00,Wunderground v.1.15,2013-04-07 22:00:00,
2013-04-07 18:05:00,53.3,41.4,29.87,WSW,240,2.0,2.0,64,0.00,,,0.00,Wunderground v.1.15,2013-04-07 22:05:00,
2013-04-07 18:10:00,53.3,41.0,29.88,SW,231,2.0,2.0,63,0.00,,,0.00,Wunderground v.1.15,2013-04-07 22:10:00,
2013-04-07 18:15:00,53.1,41.2,29.88,SSW,210,1.0,2.0,64,0.00,,,0.00,Wunderground v.1.15,2013-04-07 22:15:00,
2013-04-07 18:20:00,52.7,40.9,29.89,SSW,203,1.0,2.0,64,0.00,,,0.00,Wunderground v.1.15,2013-04-07 22:20:00,
2013-04-07 18:30:00,51.8,40.4,29.89,SW,231,2.0,2.0,65,0.00,,,0.00,Wunderground v.1.15,2013-04-07 22:30:00,
2013-04-07 18:35:00,51.0,40.4,29.89,WSW,243,2.0,2.0,67,0.00,,,0.00,Wunderground v.1.15,2013-04-07 22:35:00,
2013-04-07 18:40:00,50.7,40.5,29.89,SW,229,2.0,2.0,68,0.00,,,0.00,Wunderground v.1.15,2013-04-07 22:40:00,
2013-04-07 18:45:00,50.6,40.4,29.90,WNW,288,1.0,2.0,68,0.00,,,0.00,Wunderground v.1.15,2013-04-07 22:45:00,
2013-04-07 18:50:00,50.5,40.3,29.90,ESE,120,1.0,1.0,68,0.00,,,0.00,Wunderground v.1.15,2013-04-07 22:50:00,
2013-04-07 19:00:00,50.2,40.4,29.91,WNW,292,0.0,1.0,69,0.00,,,0.00,Wunderground v.1.15,2013-04-07 23:00:00,
2013-04-07 19:10:00,49.9,38.6,29.91,NW,314,1.0,1.0,65,0.00,,,0.00,Wunderground v.1.15,2013-04-07 23:10:00,
2013-04-07 19:15:00,49.7,37.6,29.92,WSW,247,1.0,2.0,63,0.00,,,0.00,Wunderground v.1.15,2013-04-07 23:15:00,
2013-04-07 19:25:00,49.4,37.3,29.92,ENE,73,2.0,2.0,63,0.00,,,0.00,Wunderground v.1.15,2013-04-07 23:25:00,
2013-04-07 19:35:00,48.8,37.2,29.93,West,266,2.0,4.0,64,0.00,,,0.00,Wunderground v.1.15,2013-04-07 23:35:00,
2013-04-07 19:45:00,48.3,36.7,29.93,West,262,2.0,3.0,64,0.00,,,0.00,Wunderground v.1.15,2013-04-07 23:45:00,
2013-04-07 19:50:00,48.1,36.9,29.93,SW,232,1.0,1.0,65,0.00,,,0.00,Wunderground v.1.15,2013-04-07 23:50:00,
2013-04-07 19:55:00,47.9,36.7,29.94,NNW,330,1.0,2.0,65,0.00,,,0.00,Wunderground v.1.15,2013-04-07 23:55:00,
2013-04-07 20:00:00,47.6,36.4,29.94,WNW,295,1.0,1.0,65,0.00,,,0.00,Wunderground v.1.15,2013-04-08 00:00:00,
2013-04-07 20:10:00,47.1,35.9,29.95,WNW,295,1.0,1.0,65,0.00,,,0.00,Wunderground v.1.15,2013-04-08 00:10:00,
2013-04-07 20:15:00,46.9,36.1,29.95,SW,235,1.0,1.0,66,0.00,,,0.00,Wunderground v.1.15,2013-04-08 00:15:00,
2013-04-07 20:20:00,46.7,35.9,29.95,SW,233,1.0,1.0,66,0.00,,,0.00,Wunderground v.1.15,2013-04-08 00:20:00,
2013-04-07 20:25:00,46.5,36.1,29.96,NW,326,0.0,1.0,67,0.00,,,0.00,Wunderground v.1.15,2013-04-08 00:25:00,
2013-04-07 20:30:00,46.3,35.9,29.96,NW,324,1.0,2.0,67,0.00,,,0.00,Wunderground v.1.15,2013-04-08 00:30:00,
2013-04-07 20:40:00,46.2,35.8,29.97,West,264,1.0,2.0,67,0.00,,,0.00,Wunderground v.1.15,2013-04-08 00:40:00,
2013-04-07 20:45:00,46.1,35.7,29.97,NW,312,1.0,2.0,67,0.00,,,0.00,Wunderground v.1.15,2013-04-08 00:45:00,
2013-04-07 20:55:00,45.8,35.8,29.98,WNW,290,1.0,1.0,68,0.00,,,0.00,Wunderground v.1.15,2013-04-08 00:55:00,
2013-04-07 21:05:00,45.5,35.5,29.98,WNW,299,0.0,1.0,68,0.00,,,0.00,Wunderground v.1.15,2013-04-08 01:05:00,
2013-04-07 21:10:00,45.4,35.5,29.98,NE,56,1.0,1.0,68,0.00,,,0.00,Wunderground v.1.15,2013-04-08 01:10:00,
2013-04-07 21:20:00,45.1,35.2,29.99,NNE,25,1.0,1.0,68,0.00,,,0.00,Wunderground v.1.15,2013-04-08 01:20:00,
2013-04-07 21:30:00,44.8,34.9,30.00,NNW,340,1.0,2.0,68,0.00,,,0.00,Wunderground v.1.15,2013-04-08 01:30:00,
2013-04-07 21:40:00,44.5,34.6,30.00,WNW,288,1.0,1.0,68,0.00,,,0.00,Wunderground v.1.15,2013-04-08 01:40:00,
2013-04-07 21:45:00,44.2,34.7,30.00,NW,317,0.0,1.0,69,0.00,,,0.00,Wunderground v.1.15,2013-04-08 01:45:00,
2013-04-07 21:55:00,43.8,34.3,30.01,WNW,287,0.0,1.0,69,0.00,,,0.00,Wunderground v.1.15,2013-04-08 01:55:00,
2013-04-07 22:00:00,43.6,34.5,30.01,NW,316,0.0,0.0,70,0.00,,,0.00,Wunderground v.1.15,2013-04-08 02:00:00,
2013-04-07 22:05:00,43.5,34.4,30.01,WNW,302,0.0,0.0,70,0.00,,,0.00,Wunderground v.1.15,2013-04-08 02:05:00,
2013-04-07 22:15:00,43.3,34.5,30.02,NNE,15,1.0,1.0,71,0.00,,,0.00,Wunderground v.1.15,2013-04-08 02:15:00,
2013-04-07 22:20:00,43.3,34.9,30.02,NW,323,1.0,1.0,72,0.00,,,0.00,Wunderground v.1.15,2013-04-08 02:20:00,
2013-04-07 22:25:00,43.4,34.6,30.02,North,354,1.0,1.0,71,0.00,,,0.00,Wunderground v.1.15,2013-04-08 02:25:00,
2013-04-07 22:35:00,43.5,34.7,30.02,WNW,288,1.0,1.0,71,0.00,,,0.00,Wunderground v.1.15,2013-04-08 02:35:00,
2013-04-07 22:45:00,43.6,34.5,30.02,WSW,255,1.0,1.0,70,0.00,,,0.00,Wunderground v.1.15,2013-04-08 02:45:00,
2013-04-07 22:50:00,43.5,34.4,30.03,NNW,331,0.0,2.0,70,0.00,,,0.00,Wunderground v.1.15,2013-04-08 02:50:00,
2013-04-07 22:55:00,43.5,34.4,30.02,NNW,328,1.0,2.0,70,0.00,,,0.00,Wunderground v.1.15,2013-04-08 02:55:00,
2013-04-07 23:00:00,43.5,34.4,30.02,West,269,1.0,1.0,70,0.00,,,0.00,Wunderground v.1.15,2013-04-08 03:00:00,
2013-04-07 23:10:00,43.3,34.2,30.02,NNW,335,1.0,1.0,70,0.00,,,0.00,Wunderground v.1.15,2013-04-08 03:10:00,
2013-04-07 23:15:00,43.2,34.1,30.02,NNW,338,0.0,1.0,70,0.00,,,0.00,Wunderground v.1.15,2013-04-08 03:15:00,
2013-04-07 23:20:00,43.1,34.0,30.03,NW,319,0.0,0.0,70,0.00,,,0.00,Wunderground v.1.15,2013-04-08 03:20:00,
2013-04-07 23:25:00,43.1,34.0,30.03,NNW,330,0.0,0.0,70,0.00,,,0.00,Wunderground v.1.15,2013-04-08 03:25:00,
2013-04-07 23:35:00,43.1,34.0,30.03,NNW,342,0.0,1.0,70,0.00,,,0.00,Wunderground v.1.15,2013-04-08 03:35:00,
2013-04-07 23:40:00,43.1,34.0,30.04,NNE,15,1.0,3.0,70,0.00,,,0.00,Wunderground v.1.15,2013-04-08 03:40:00,
2013-04-07 23:50:00,42.9,33.4,30.04,NNW,333,1.0,1.0,69,0.00,,,0.00,Wunderground v.1.15,2013-04-08 03:50:00,
2013-04-07 23:55:00,42.8,33.3,30.04,NNE,15,1.0,1.0,69,0.00,,,0.00,Wunderground v.1.15,2013-04-08 03:55:00,